createdAt,value
2023-04-15T00:01:19.645Z,67.40
2023-04-15T00:03:47.821Z,67.87
2023-04-15T00:06:15.281Z,67.54
2023-04-15T00:08:42.439Z,67.59
2023-04-15T00:11:09.668Z,67.72
2023-04-15T00:13:36.612Z,67.08
2023-04-15T00:16:06.464Z,67.43
2023-04-15T00:18:33.393Z,66.94
2023-04-15T00:21:00.478Z,66.90
2023-04-15T00:23:28.156Z,67.30
2023-04-15T00:25:55.679Z,67.42
2023-04-15T00:28:22.646Z,66.97
2023-04-15T00:30:50.457Z,66.86
2023-04-15T00:33:18.806Z,67.32
2023-04-15T00:35:46.026Z,67.11
2023-04-15T00:38:13.243Z,66.95
2023-04-15T00:40:41.418Z,66.49
2023-04-15T00:43:08.671Z,66.32
2023-04-15T00:45:35.903Z,66.97
2023-04-15T00:48:03.589Z,67.15
2023-04-15T00:50:32.932Z,67.29
2023-04-15T00:53:00.017Z,67.04
2023-04-15T00:55:27.320Z,67.30
2023-04-15T00:57:55.016Z,66.98
2023-04-15T01:00:22.771Z,66.78
2023-04-15T01:02:50.976Z,66.38
2023-04-15T01:05:19.464Z,66.48
2023-04-15T01:07:48.942Z,66.36
2023-04-15T01:10:16.218Z,66.23
2023-04-15T01:12:43.414Z,66.60
2023-04-15T01:15:11.216Z,66.20
2023-04-15T01:17:39.600Z,66.39
2023-04-15T01:20:10.577Z,65.69
2023-04-15T01:22:38.345Z,66.25
2023-04-15T01:25:13.077Z,66.10
2023-04-15T01:27:45.383Z,66.06
2023-04-15T01:30:12.724Z,66.17
2023-04-15T01:32:39.850Z,65.65
2023-04-15T01:35:07.821Z,66.38
2023-04-15T01:37:34.891Z,66.28
2023-04-15T01:40:03.354Z,65.89
2023-04-15T01:42:30.369Z,66.35
2023-04-15T01:44:59.003Z,66.12
2023-04-15T01:47:25.958Z,66.26
2023-04-15T01:49:53.245Z,66.21
2023-04-15T01:52:20.673Z,65.69
2023-04-15T01:54:48.090Z,65.86
2023-04-15T01:57:15.074Z,66.32
2023-04-15T01:59:42.704Z,65.75
2023-04-15T02:02:11.305Z,66.45
2023-04-15T02:04:39.093Z,66.08
2023-04-15T02:07:06.019Z,66.15
2023-04-15T02:09:33.696Z,66.32
2023-04-15T02:12:00.800Z,66.05
2023-04-15T02:14:28.072Z,66.26
2023-04-15T02:16:55.056Z,66.21
2023-04-15T02:19:23.790Z,66.21
2023-04-15T02:21:50.714Z,66.20
2023-04-15T02:24:17.868Z,65.79
2023-04-15T02:26:44.841Z,65.68
2023-04-15T02:29:12.268Z,65.21
2023-04-15T02:31:40.633Z,65.41
2023-04-15T02:34:08.251Z,65.67
2023-04-15T02:36:36.632Z,65.38
2023-04-15T02:39:04.424Z,65.26
2023-04-15T02:41:31.436Z,65.20
2023-04-15T02:43:58.703Z,65.30
2023-04-15T02:46:25.975Z,65.09
2023-04-15T02:48:53.923Z,65.04
2023-04-15T02:51:22.488Z,65.02
2023-04-15T02:53:51.338Z,64.47
2023-04-15T02:56:19.448Z,64.26
2023-04-15T02:58:46.988Z,64.27
2023-04-15T03:01:14.068Z,64.50
2023-04-15T03:03:41.453Z,64.46
2023-04-15T03:06:09.065Z,64.54
2023-04-15T03:08:37.064Z,64.24
2023-04-15T03:11:05.581Z,64.15
2023-04-15T03:13:32.877Z,64.28
2023-04-15T03:15:59.848Z,64.46
2023-04-15T03:18:27.177Z,64.70
2023-04-15T03:20:54.302Z,64.33
2023-04-15T03:23:21.776Z,64.61
2023-04-15T03:25:48.835Z,64.86
2023-04-15T03:28:17.472Z,64.69
2023-04-15T03:30:44.429Z,64.57
2023-04-15T03:33:12.083Z,64.95
2023-04-15T03:35:38.998Z,65.16
2023-04-15T03:38:06.510Z,64.89
2023-04-15T03:40:33.520Z,65.30
2023-04-15T03:43:00.960Z,64.89
2023-04-15T03:45:29.379Z,65.39
2023-04-15T03:48:00.596Z,65.25
2023-04-15T03:50:38.237Z,65.53
2023-04-15T03:53:06.039Z,65.34
2023-04-15T03:55:33.020Z,65.53
2023-04-15T03:58:00.272Z,65.73
2023-04-15T04:00:27.327Z,66.42
2023-04-15T04:02:56.363Z,66.38
2023-04-15T04:05:23.473Z,66.30
2023-04-15T04:07:50.677Z,65.26
2023-04-15T04:10:18.886Z,65.51
2023-04-15T04:12:46.253Z,65.79
2023-04-15T04:15:13.263Z,65.80
2023-04-15T04:17:40.814Z,66.21
2023-04-15T04:20:10.090Z,65.48
2023-04-15T04:22:38.765Z,65.49
2023-04-15T04:25:07.221Z,65.06
2023-04-15T04:27:34.409Z,63.79
2023-04-15T04:30:01.598Z,64.14
2023-04-15T04:32:28.959Z,63.71
2023-04-15T04:34:55.973Z,61.90
2023-04-15T04:37:25.125Z,59.04
2023-04-15T04:39:52.092Z,56.75
2023-04-15T04:42:19.360Z,53.72
2023-04-15T04:44:46.454Z,51.47
2023-04-15T04:47:14.151Z,49.04
2023-04-15T04:49:41.592Z,47.04
2023-04-15T04:52:09.096Z,44.12
2023-04-15T04:54:37.719Z,41.99
2023-04-15T04:57:04.970Z,40.01
2023-04-15T04:59:33.296Z,39.59
2023-04-15T05:02:00.837Z,37.92
2023-04-15T05:04:27.989Z,37.17
2023-04-15T05:06:55.566Z,36.48
2023-04-15T05:09:22.600Z,36.34
2023-04-15T05:11:51.400Z,36.05
2023-04-15T05:14:18.445Z,34.60
2023-04-15T05:16:45.791Z,33.03
2023-04-15T05:19:12.772Z,32.24
2023-04-15T05:21:40.079Z,32.05
2023-04-15T05:24:07.120Z,30.54
2023-04-15T05:26:34.440Z,30.27
2023-04-15T05:29:02.920Z,29.79
2023-04-15T05:31:30.242Z,28.90
2023-04-15T05:33:57.331Z,29.87
2023-04-15T05:36:24.707Z,31.26
2023-04-15T05:38:51.728Z,32.89
2023-04-15T05:41:19.869Z,34.02
2023-04-15T05:43:47.130Z,35.14
2023-04-15T05:46:16.014Z,35.54
2023-04-15T05:48:42.974Z,36.04
2023-04-15T05:51:10.532Z,37.15
2023-04-15T05:53:37.596Z,37.54
2023-04-15T05:56:05.186Z,38.50
2023-04-15T05:58:32.303Z,38.28
2023-04-15T06:00:59.998Z,38.29
2023-04-15T06:03:29.749Z,38.94
2023-04-15T06:05:57.013Z,39.22
2023-04-15T06:08:23.995Z,38.97
2023-04-15T06:10:51.495Z,39.94
2023-04-15T06:13:18.441Z,39.94
2023-04-15T06:15:45.670Z,39.68
2023-04-15T06:18:13.078Z,39.84
2023-04-15T06:20:41.882Z,40.22
2023-04-15T06:23:08.978Z,40.04
2023-04-15T06:25:36.286Z,40.38
2023-04-15T06:28:03.672Z,40.94
2023-04-15T06:30:30.930Z,41.05
2023-04-15T06:32:58.144Z,41.47
2023-04-15T06:35:25.523Z,41.27
2023-04-15T06:37:53.945Z,40.95
2023-04-15T06:40:21.737Z,40.98
2023-04-15T06:42:48.778Z,40.81
2023-04-15T06:45:16.037Z,40.47
2023-04-15T06:47:43.662Z,40.78
2023-04-15T06:50:11.666Z,41.47
2023-04-15T06:52:38.775Z,41.31
2023-04-15T06:55:08.773Z,40.46
2023-04-15T06:57:36.021Z,41.00
2023-04-15T07:00:05.755Z,40.77
2023-04-15T07:02:32.953Z,41.12
2023-04-15T07:05:00.663Z,40.59
2023-04-15T07:07:27.752Z,40.37
2023-04-15T07:09:54.959Z,40.34
2023-04-15T07:12:23.329Z,40.09
2023-04-15T07:14:50.721Z,40.20
2023-04-15T07:17:17.813Z,40.55
2023-04-15T07:19:45.096Z,40.54
2023-04-15T07:22:12.204Z,40.41
2023-04-15T07:24:39.624Z,39.98
2023-04-15T07:27:06.512Z,41.23
2023-04-15T07:29:36.375Z,40.84
2023-04-15T07:32:03.830Z,40.55
2023-04-15T07:34:32.823Z,38.73
2023-04-15T07:37:00.175Z,38.45
2023-04-15T07:39:27.593Z,38.07
2023-04-15T07:41:54.686Z,38.96
2023-04-15T07:44:22.015Z,38.72
2023-04-15T07:46:50.533Z,38.74
2023-04-15T07:49:19.432Z,38.54
2023-04-15T07:51:46.431Z,38.60
2023-04-15T07:54:14.095Z,38.12
2023-04-15T07:56:41.369Z,39.23
2023-04-15T07:59:09.880Z,39.18
2023-04-15T08:01:37.691Z,39.41
2023-04-15T08:04:06.702Z,39.12
2023-04-15T08:06:34.057Z,39.12
2023-04-15T08:09:01.862Z,38.53
2023-04-15T08:11:28.994Z,39.08
2023-04-15T08:13:56.610Z,38.96
2023-04-15T08:16:24.993Z,39.99
2023-04-15T08:18:53.961Z,39.54
2023-04-15T08:21:22.957Z,38.53
2023-04-15T08:23:51.508Z,38.76
2023-04-15T08:26:18.860Z,39.18
2023-04-15T08:28:46.684Z,39.05
2023-04-15T08:31:14.958Z,39.11
2023-04-15T08:33:42.743Z,38.15
2023-04-15T08:36:09.944Z,38.49
2023-04-15T08:38:38.618Z,37.88
2023-04-15T08:41:12.487Z,37.22
2023-04-15T08:43:48.206Z,37.83
2023-04-15T08:46:16.759Z,37.93
2023-04-15T08:48:44.245Z,37.63
2023-04-15T08:51:11.762Z,38.02
2023-04-15T08:53:40.508Z,37.12
2023-04-15T08:56:10.348Z,36.07
2023-04-15T08:58:38.272Z,36.66
2023-04-15T09:01:05.583Z,37.15
2023-04-15T09:03:34.822Z,35.93
2023-04-15T09:06:04.672Z,36.05
2023-04-15T09:08:32.300Z,36.37
2023-04-15T09:14:12.355Z,35.16
2023-04-15T09:17:01.065Z,35.42
2023-04-15T09:19:28.931Z,35.57
2023-04-15T09:21:59.069Z,35.51
2023-04-15T09:24:37.470Z,35.57
2023-04-15T09:27:05.187Z,35.90
2023-04-15T09:29:34.174Z,35.55
2023-04-15T09:32:11.036Z,35.05
2023-04-15T09:34:38.704Z,35.91
2023-04-15T09:37:07.625Z,35.73
2023-04-15T09:39:50.016Z,35.75
2023-04-15T09:42:23.994Z,35.79
2023-04-15T09:44:53.239Z,35.86
2023-04-15T09:47:29.311Z,34.79
2023-04-15T09:49:57.499Z,34.39
2023-04-15T09:52:24.515Z,35.04
2023-04-15T09:54:54.604Z,35.27
2023-04-15T09:57:21.941Z,35.54
2023-04-15T09:59:49.191Z,35.74
2023-04-15T10:02:20.970Z,35.81
2023-04-15T10:04:49.378Z,35.97
2023-04-15T10:07:20.615Z,36.17
2023-04-15T10:09:49.358Z,35.57
2023-04-15T10:12:18.180Z,34.91
2023-04-15T10:14:51.817Z,34.61
2023-04-15T10:17:22.815Z,34.87
2023-04-15T10:19:54.069Z,34.51
2023-04-15T10:22:22.902Z,33.67
2023-04-15T10:24:51.422Z,33.81
2023-04-15T10:27:19.050Z,33.54
2023-04-15T10:29:47.815Z,34.21
2023-04-15T10:32:15.981Z,33.45
2023-04-15T10:34:46.380Z,32.23
2023-04-15T10:37:13.489Z,33.34
2023-04-15T10:39:43.092Z,33.56
2023-04-15T10:42:11.492Z,33.56
2023-04-15T10:44:39.461Z,34.34
2023-04-15T10:47:13.894Z,34.49
2023-04-15T10:49:47.181Z,34.22
2023-04-15T10:52:15.576Z,33.51
2023-04-15T10:54:44.816Z,32.86
2023-04-15T10:57:17.525Z,33.33
2023-04-15T11:00:04.765Z,32.88
2023-04-15T11:02:44.036Z,33.00
2023-04-15T11:05:13.854Z,33.45
2023-04-15T11:07:48.697Z,33.35
2023-04-15T11:10:52.641Z,33.66
2023-04-15T11:13:22.768Z,33.99
2023-04-15T11:15:50.330Z,34.16
2023-04-15T11:18:18.759Z,33.92
2023-04-15T11:20:50.622Z,34.17
2023-04-15T11:23:18.923Z,34.28
2023-04-15T11:25:46.265Z,33.37
2023-04-15T11:28:13.709Z,33.22
2023-04-15T11:30:42.504Z,32.98
2023-04-15T11:33:12.199Z,32.93
2023-04-15T11:35:41.653Z,32.89
2023-04-15T11:38:12.099Z,33.06
2023-04-15T11:40:40.296Z,31.85
2023-04-15T11:43:09.089Z,32.35
2023-04-15T11:45:37.416Z,33.05
2023-04-15T11:48:09.272Z,33.79
2023-04-15T11:50:37.850Z,33.88
2023-04-15T11:53:08.286Z,33.48
2023-04-15T11:55:44.716Z,33.56
2023-04-15T11:58:15.618Z,34.04
2023-04-15T12:00:48.261Z,34.00
2023-04-15T12:03:20.180Z,33.95
2023-04-15T12:06:07.573Z,33.77
2023-04-15T12:09:09.807Z,33.50
2023-04-15T12:11:41.704Z,34.16
2023-04-15T12:14:16.086Z,33.62
2023-04-15T12:16:48.682Z,32.36
2023-04-15T12:19:18.861Z,32.62
2023-04-15T12:21:48.693Z,32.65
2023-04-15T12:24:19.839Z,31.94
2023-04-15T12:26:50.468Z,32.18
2023-04-15T12:29:18.036Z,32.48
2023-04-15T12:31:53.502Z,32.71
2023-04-15T12:34:27.970Z,32.76
2023-04-15T12:36:55.748Z,32.75
2023-04-15T12:39:24.566Z,33.12
2023-04-15T12:41:53.370Z,32.85
2023-04-15T12:44:22.759Z,31.91
2023-04-15T12:46:50.649Z,31.82
2023-04-15T12:49:20.072Z,31.32
2023-04-15T12:51:49.397Z,31.58
2023-04-15T12:54:16.903Z,31.94
2023-04-15T12:56:44.563Z,32.01
2023-04-15T12:59:13.041Z,31.62
2023-04-15T13:01:40.648Z,31.57
2023-04-15T13:04:08.196Z,32.16
2023-04-15T13:06:36.256Z,31.79
2023-04-15T13:09:05.247Z,31.73
2023-04-15T13:11:36.763Z,30.75
2023-04-15T13:14:06.749Z,29.83
2023-04-15T13:16:36.026Z,30.34
2023-04-15T13:19:03.625Z,30.12
2023-04-15T13:21:35.077Z,30.13
2023-04-15T13:24:02.739Z,30.42
2023-04-15T13:26:31.322Z,29.74
2023-04-15T13:28:58.360Z,30.75
2023-04-15T13:31:26.362Z,30.66
2023-04-15T13:34:04.509Z,30.71
2023-04-15T13:36:31.982Z,30.88
2023-04-15T13:38:59.968Z,30.63
2023-04-15T13:41:27.274Z,30.99
2023-04-15T13:43:54.348Z,31.01
2023-04-15T13:46:22.283Z,31.45
2023-04-15T13:48:49.835Z,31.59
2023-04-15T13:51:18.521Z,31.94
2023-04-15T13:53:45.805Z,31.79
2023-04-15T13:56:13.056Z,32.08
2023-04-15T13:58:41.227Z,31.69
2023-04-15T14:01:08.776Z,32.00
2023-04-15T14:03:36.950Z,32.04
2023-04-15T14:06:04.951Z,31.74
2023-04-15T14:08:33.657Z,31.24
2023-04-15T14:11:01.124Z,31.12
2023-04-15T14:13:28.838Z,31.07
2023-04-15T14:15:57.212Z,30.63
2023-04-15T14:18:24.210Z,30.89
2023-04-15T14:20:51.814Z,30.75
2023-04-15T14:23:18.943Z,30.67
2023-04-15T14:25:48.548Z,30.05
2023-04-15T14:28:15.831Z,30.35
2023-04-15T14:30:43.538Z,29.67
2023-04-15T14:33:10.667Z,29.26
2023-04-15T14:35:38.229Z,29.40
2023-04-15T14:38:11.003Z,28.77
2023-04-15T14:40:38.861Z,29.67
2023-04-15T14:43:07.502Z,30.47
2023-04-15T14:45:36.509Z,30.98
2023-04-15T14:48:03.811Z,30.91
2023-04-15T14:50:31.095Z,30.16
2023-04-15T14:52:58.591Z,29.94
2023-04-15T14:55:25.898Z,29.39
2023-04-15T14:57:53.103Z,29.47
2023-04-15T15:00:22.030Z,29.66
2023-04-15T15:02:49.174Z,28.87
2023-04-15T15:05:17.017Z,29.75
2023-04-15T15:07:44.050Z,29.46
2023-04-15T15:10:11.257Z,29.26
2023-04-15T15:12:38.299Z,29.64
2023-04-15T15:15:15.774Z,29.80
2023-04-15T15:17:53.980Z,29.62
2023-04-15T15:20:21.963Z,29.52
2023-04-15T15:22:49.305Z,29.94
2023-04-15T15:25:16.859Z,29.73
2023-04-15T15:27:44.097Z,30.02
2023-04-15T15:30:12.642Z,29.82
2023-04-15T15:32:40.703Z,29.85
2023-04-15T15:35:11.078Z,30.03
2023-04-15T15:37:38.613Z,30.41
2023-04-15T15:40:07.076Z,30.84
2023-04-15T15:42:34.488Z,31.05
2023-04-15T15:45:04.771Z,31.13
2023-04-15T15:47:32.173Z,31.36
2023-04-15T15:50:00.549Z,31.29
2023-04-15T15:52:28.888Z,30.65
2023-04-15T15:54:56.071Z,30.43
2023-04-15T15:57:23.258Z,30.71
2023-04-15T15:59:52.801Z,30.65
2023-04-15T16:02:52.347Z,31.26
2023-04-15T16:05:15.913Z,31.01
2023-04-15T16:07:44.219Z,31.04
2023-04-15T16:10:12.515Z,30.99
2023-04-15T16:12:39.587Z,31.01
2023-04-15T16:15:08.226Z,30.85
2023-04-15T16:17:35.528Z,31.11
2023-04-15T16:20:05.649Z,31.15
2023-04-15T16:22:32.869Z,31.36
2023-04-15T16:25:01.767Z,31.49
2023-04-15T16:27:29.026Z,31.47
2023-04-15T16:29:56.281Z,31.57
2023-04-15T16:32:23.279Z,31.56
2023-04-15T16:34:50.873Z,31.76
2023-04-15T16:37:17.898Z,31.95
2023-04-15T16:39:45.035Z,31.97
2023-04-15T16:42:13.366Z,32.16
2023-04-15T16:44:40.708Z,32.36
2023-04-15T16:47:09.778Z,32.47
2023-04-15T16:49:37.047Z,32.56
2023-04-15T16:52:04.125Z,32.60
2023-04-15T16:54:33.509Z,32.81
2023-04-15T16:57:02.057Z,32.88
2023-04-15T16:59:30.484Z,33.11
2023-04-15T17:01:57.746Z,33.31
2023-04-15T17:04:25.386Z,33.39
2023-04-15T17:06:52.418Z,33.64
2023-04-15T17:09:19.713Z,33.77
2023-04-15T17:11:46.722Z,34.13
2023-04-15T17:14:14.277Z,34.39
2023-04-15T17:16:43.239Z,34.64
2023-04-15T17:19:10.566Z,34.53
2023-04-15T17:21:37.590Z,34.77
2023-04-15T17:24:06.096Z,34.97
2023-04-15T17:26:33.176Z,35.33
2023-04-15T17:29:00.424Z,35.33
2023-04-15T17:31:29.665Z,35.71
2023-04-15T17:34:09.990Z,35.91
2023-04-15T17:36:38.055Z,36.32
2023-04-15T17:39:05.583Z,36.38
2023-04-15T17:41:32.785Z,36.72
2023-04-15T17:44:00.505Z,37.05
2023-04-15T17:46:29.076Z,37.32
2023-04-15T17:48:56.415Z,37.69
2023-04-15T17:51:24.867Z,37.74
2023-04-15T17:53:52.177Z,37.96
2023-04-15T17:56:19.264Z,38.18
2023-04-15T17:58:46.666Z,38.25
2023-04-15T18:01:13.681Z,38.27
2023-04-15T18:03:41.117Z,38.36
2023-04-15T18:06:08.230Z,38.53
2023-04-15T18:08:36.936Z,38.62
2023-04-15T18:11:04.708Z,39.22
2023-04-15T18:13:32.262Z,39.52
2023-04-15T18:15:59.298Z,39.90
2023-04-15T18:18:26.643Z,39.87
2023-04-15T18:20:53.589Z,39.83
2023-04-15T18:23:21.056Z,39.94
2023-04-15T18:25:49.811Z,40.09
2023-04-15T18:28:17.095Z,40.50
2023-04-15T18:30:44.194Z,40.62
2023-04-15T18:33:12.319Z,40.85
2023-04-15T18:35:39.313Z,41.08
2023-04-15T18:38:06.485Z,41.52
2023-04-15T18:40:33.606Z,41.54
2023-04-15T18:43:02.163Z,41.79
2023-04-15T18:45:30.044Z,42.03
2023-04-15T18:48:00.220Z,42.14
2023-04-15T18:50:27.265Z,42.76
2023-04-15T18:52:54.613Z,43.38
2023-04-15T18:55:23.835Z,44.55
2023-04-15T18:57:51.563Z,44.40
2023-04-15T19:00:19.979Z,44.45
2023-04-15T19:02:47.276Z,45.13
2023-04-15T19:05:14.396Z,44.92
2023-04-15T19:07:42.059Z,45.28
2023-04-15T19:10:09.494Z,45.35
2023-04-15T19:12:37.067Z,45.60
2023-04-15T19:15:04.363Z,45.02
2023-04-15T19:17:33.317Z,45.10
2023-04-15T19:20:00.566Z,44.75
2023-04-15T19:22:29.943Z,44.95
2023-04-15T19:24:56.813Z,44.91
2023-04-15T19:27:24.032Z,44.78
2023-04-15T19:29:50.954Z,44.67
2023-04-15T19:32:18.240Z,44.54
2023-04-15T19:34:46.653Z,44.44
2023-04-15T19:37:14.742Z,44.52
2023-04-15T19:39:41.884Z,44.51
2023-04-15T19:42:09.713Z,44.75
2023-04-15T19:44:37.402Z,44.72
2023-04-15T19:47:04.638Z,44.67
2023-04-15T19:49:31.725Z,44.93
2023-04-15T19:52:00.370Z,44.88
2023-04-15T19:54:27.482Z,44.92
2023-04-15T19:56:54.851Z,44.93
2023-04-15T19:59:21.900Z,44.86
2023-04-15T20:01:49.259Z,44.74
2023-04-15T20:04:16.755Z,44.50
2023-04-15T20:06:44.099Z,44.61
2023-04-15T20:09:12.577Z,44.57
2023-04-15T20:12:45.941Z,44.63
2023-04-15T20:14:27.400Z,44.75
2023-04-15T20:16:54.738Z,44.49
2023-04-15T20:19:21.716Z,44.96
2023-04-15T20:21:50.321Z,44.93
2023-04-15T20:24:21.464Z,44.96
2023-04-15T20:26:48.981Z,45.13
2023-04-15T20:29:16.021Z,45.26
2023-04-15T20:31:43.410Z,45.13
2023-04-15T20:34:12.141Z,45.70
2023-04-15T20:36:39.298Z,45.83
2023-04-15T20:39:06.396Z,45.52
2023-04-15T20:41:35.342Z,45.92
2023-04-15T20:44:02.380Z,46.26
2023-04-15T20:46:29.595Z,46.70
2023-04-15T20:48:56.538Z,47.05
2023-04-15T20:51:23.815Z,47.10
2023-04-15T20:53:51.247Z,47.11
2023-04-15T20:56:18.624Z,46.85
2023-04-15T20:58:47.001Z,47.16
2023-04-15T21:01:14.355Z,47.05
2023-04-15T21:03:41.563Z,47.10
2023-04-15T21:06:08.891Z,47.50
2023-04-15T21:08:35.949Z,48.08
2023-04-15T21:11:03.418Z,48.09
2023-04-15T21:13:30.416Z,47.99
2023-04-15T21:15:59.107Z,48.14
2023-04-15T21:18:26.120Z,47.97
2023-04-15T21:20:56.849Z,48.04
2023-04-15T21:23:23.973Z,47.99
2023-04-15T21:25:51.536Z,48.17
2023-04-15T21:28:18.492Z,48.20
2023-04-15T21:30:46.196Z,48.02
2023-04-15T21:33:14.618Z,47.94
2023-04-15T21:35:41.935Z,47.96
2023-04-15T21:38:08.936Z,48.02
2023-04-15T21:40:40.330Z,48.46
2023-04-15T21:43:07.661Z,48.71
2023-04-15T21:45:35.137Z,48.61
2023-04-15T21:48:07.549Z,48.84
2023-04-15T21:50:37.486Z,48.88
2023-04-15T21:53:06.486Z,48.98
2023-04-15T21:55:33.744Z,48.76
2023-04-15T21:58:00.656Z,48.79
2023-04-15T22:00:28.014Z,48.72
2023-04-15T22:02:55.508Z,48.63
2023-04-15T22:05:22.909Z,48.69
2023-04-15T22:07:51.556Z,48.80
2023-04-15T22:10:19.587Z,48.93
2023-04-15T22:12:46.528Z,48.58
2023-04-15T22:15:14.761Z,48.84
2023-04-15T22:17:41.672Z,48.90
2023-04-15T22:20:09.966Z,48.83
2023-04-15T22:22:43.971Z,48.78
2023-04-15T22:25:16.456Z,48.74
2023-04-15T22:27:43.382Z,48.66
2023-04-15T22:30:11.528Z,48.48
2023-04-15T22:32:38.487Z,48.64
2023-04-15T22:35:06.704Z,48.68
2023-04-15T22:37:33.715Z,48.71
2023-04-15T22:40:01.988Z,49.18
2023-04-15T22:42:30.422Z,49.13
2023-04-15T22:44:57.689Z,49.61
2023-04-15T22:47:24.724Z,49.85
2023-04-15T22:49:51.932Z,50.46
2023-04-15T22:52:27.496Z,50.39
2023-04-15T22:54:57.610Z,50.44
2023-04-15T22:57:24.486Z,50.98
2023-04-15T22:59:53.075Z,50.97
2023-04-15T23:02:20.554Z,50.73
2023-04-15T23:04:48.057Z,50.93
2023-04-15T23:07:15.074Z,50.94
2023-04-15T23:09:42.305Z,50.68
2023-04-15T23:12:09.500Z,50.99
2023-04-15T23:14:36.801Z,51.26
2023-04-15T23:17:05.544Z,51.17
2023-04-15T23:19:32.941Z,51.26
2023-04-15T23:21:59.933Z,51.21
2023-04-15T23:24:27.190Z,51.05
2023-04-15T23:26:54.768Z,50.95
2023-04-15T23:29:22.031Z,50.87
2023-04-15T23:31:49.029Z,51.17
2023-04-15T23:34:17.712Z,51.50
2023-04-15T23:36:44.627Z,51.70
2023-04-15T23:39:12.108Z,51.64
2023-04-15T23:41:39.140Z,51.46
2023-04-15T23:44:07.173Z,51.78
2023-04-15T23:46:34.083Z,52.12
2023-04-15T23:49:01.231Z,52.37
2023-04-15T23:51:29.418Z,52.60
2023-04-15T23:53:56.735Z,53.07
2023-04-15T23:56:23.697Z,53.40
2023-04-15T23:58:51.049Z,53.39
